Time;durP1;ratioP1;P1;durP2;ratioP2;P2;SDS_P1;SDS_P2;PMS_P1;PMS_P2;Temp;Humidity;BMP_temperature;BMP_pressure;BME280_temperature;BME280_humidity;BME280_pressure;Samples;Min_cycle;Max_cycle;Signal;HPM_P1;HPM_P2
2021/01/02 06:02:26;;;;;;;5.03;4.03;;;;;;;;;;5066688;28;20381;-59
2021/01/02 06:05:04;;;;;;;6.93;3.88;;;;;;;;;;5054832;28;20112;-58
2021/01/02 06:07:35;;;;;;;8.10;3.75;;;;;;;;;;5047200;28;20033;-59
2021/01/02 06:10:01;;;;;;;9.82;5.15;;;;;;;;;;5046680;28;20028;-58
2021/01/02 06:12:29;;;;;;;9.70;5.30;;;;;;;;;;5046392;28;20029;-59
2021/01/02 06:14:56;;;;;;;9.95;6.47;;;;;;;;;;5050890;28;20445;-59
2021/01/02 06:17:29;;;;;;;10.68;6.55;;;;;;;;;;5047573;28;20018;-59
2021/01/02 06:19:55;;;;;;;10.75;6.57;;;;;;;;;;5047877;28;20036;-60
2021/01/02 06:22:22;;;;;;;12.90;7.15;;;;;;;;;;5047408;28;20553;-59
2021/01/02 06:24:51;;;;;;;12.18;7.07;;;;;;;;;;5044956;28;20034;-59
2021/01/02 06:27:18;;;;;;;14.27;7.97;;;;;;;;;;5048273;28;20794;-59
2021/01/02 06:29:51;;;;;;;15.05;8.02;;;;;;;;;;5049239;28;20033;-59
2021/01/02 06:32:18;;;;;;;12.05;7.95;;;;;;;;;;5047975;28;20584;-59
2021/01/02 06:34:44;;;;;;;14.43;8.07;;;;;;;;;;5047602;28;20060;-59
2021/01/02 06:37:10;;;;;;;14.80;7.45;;;;;;;;;;5047016;28;20027;-59
2021/01/02 06:39:36;;;;;;;14.23;8.18;;;;;;;;;;5027738;28;20021;-59
2021/01/02 06:42:22;;;;;;;16.80;8.93;;;;;;;;;;5051344;28;20043;-59
2021/01/02 06:44:49;;;;;;;16.38;9.32;;;;;;;;;;5049205;28;20025;-59
2021/01/02 06:47:31;;;;;;;18.83;11.02;;;;;;;;;;5047448;28;20428;-59
2021/01/02 06:49:58;;;;;;;17.33;11.40;;;;;;;;;;5047237;28;20102;-59
2021/01/02 06:52:34;;;;;;;18.63;10.50;;;;;;;;;;5047152;28;20040;-59
2021/01/02 06:55:18;;;;;;;14.70;9.65;;;;;;;;;;5045778;28;20542;-59
2021/01/02 06:57:45;;;;;;;20.05;7.75;;;;;;;;;;5029218;28;20399;-59
2021/01/02 07:00:26;;;;;;;13.77;8.55;;;;;;;;;;5049107;28;20464;-59
2021/01/02 07:02:53;;;;;;;12.77;8.25;;;;;;;;;;5032758;28;20041;-59
2021/01/02 07:05:38;;;;;;;10.38;6.40;;;;;;;;;;5029968;28;20036;-59
2021/01/02 07:08:04;;;;;;;9.95;6.70;;;;;;;;;;5030079;28;20068;-59
2021/01/02 07:10:30;;;;;;;12.77;7.05;;;;;;;;;;5029549;28;20037;-59
2021/01/02 07:13:11;;;;;;;12.65;7.47;;;;;;;;;;5030048;28;20022;-59
2021/01/02 07:15:37;;;;;;;13.73;8.50;;;;;;;;;;5014612;28;20515;-59
2021/01/02 07:18:27;;;;;;;15.95;9.25;;;;;;;;;;5033243;28;20075;-59
2021/01/02 07:20:53;;;;;;;19.40;10.40;;;;;;;;;;5029179;28;20069;-59
2021/01/02 07:23:26;;;;;;;26.25;14.27;;;;;;;;;;5029852;28;20033;-59
2021/01/02 07:25:52;;;;;;;31.02;15.02;;;;;;;;;;5029784;28;20467;-59
2021/01/02 07:28:18;;;;;;;32.50;15.93;;;;;;;;;;5029661;28;20029;-59
2021/01/02 07:30:44;;;;;;;39.08;16.50;;;;;;;;;;5029798;28;20797;-59
2021/01/02 07:33:10;;;;;;;42.67;16.90;;;;;;;;;;5032191;28;20052;-59
2021/01/02 07:35:36;;;;;;;35.35;16.05;;;;;;;;;;5030711;28;20083;-59
2021/01/02 07:38:02;;;;;;;29.40;15.45;;;;;;;;;;5029885;28;20033;-59
2021/01/02 07:40:28;;;;;;;27.80;14.55;;;;;;;;;;5029546;28;20040;-59
2021/01/02 07:42:56;;;;;;;26.73;14.90;;;;;;;;;;5029452;28;20403;-59
2021/01/02 07:45:22;;;;;;;28.50;15.07;;;;;;;;;;5031597;28;20041;-59
2021/01/02 07:47:49;;;;;;;27.77;15.65;;;;;;;;;;5030323;28;20029;-59
2021/01/02 07:50:16;;;;;;;28.33;15.85;;;;;;;;;;5029492;28;20124;-59
2021/01/02 07:52:54;;;;;;;32.60;16.75;;;;;;;;;;5029921;28;20033;-58
2021/01/02 07:55:21;;;;;;;29.13;16.58;;;;;;;;;;5029873;28;20031;-59
2021/01/02 07:57:47;;;;;;;29.48;15.25;;;;;;;;;;5029288;28;20399;-59
2021/01/02 08:00:14;;;;;;;23.42;14.55;;;;;;;;;;5031445;28;20048;-59
2021/01/02 08:02:40;;;;;;;28.73;15.88;;;;;;;;;;5029847;28;20486;-59
2021/01/02 08:05:09;;;;;;;25.85;15.23;;;;;;;;;;5030481;28;20550;-59
2021/01/02 08:07:36;;;;;;;21.80;14.40;;;;;;;;;;5029963;28;20030;-59
2021/01/02 08:10:02;;;;;;;20.67;13.20;;;;;;;;;;5029228;28;20106;-59
2021/01/02 08:12:29;;;;;;;19.70;10.85;;;;;;;;;;5062686;28;20068;-59
2021/01/02 08:14:55;;;;;;;11.55;5.15;;;;;;;;;;5030910;28;20044;-59
2021/01/02 08:17:21;;;;;;;13.00;4.93;;;;;;;;;;5029483;28;20562;-59
2021/01/02 08:19:47;;;;;;;9.60;4.10;;;;;;;;;;5030086;28;20029;-59
2021/01/02 08:22:14;;;;;;;11.05;4.07;;;;;;;;;;5029319;28;20089;-58
2021/01/02 08:24:42;;;;;;;9.68;3.85;;;;;;;;;;5029244;28;20149;-59
2021/01/02 08:27:08;;;;;;;13.90;3.67;;;;;;;;;;5031030;28;20025;-59
2021/01/02 08:29:35;;;;;;;9.07;2.70;;;;;;;;;;5030244;28;20100;-60
2021/01/02 08:32:10;;;;;;;8.85;3.47;;;;;;;;;;5028245;28;20398;-59
2021/01/02 08:34:37;;;;;;;6.53;3.53;;;;;;;;;;5029490;28;20076;-59
2021/01/02 08:37:09;;;;;;;9.25;3.15;;;;;;;;;;5029251;28;20025;-59
2021/01/02 08:39:39;;;;;;;14.00;3.47;;;;;;;;;;5028819;28;20478;-59
2021/01/02 08:42:06;;;;;;;6.20;2.90;;;;;;;;;;5032157;28;20025;-62
2021/01/02 08:44:35;;;;;;;8.38;2.88;;;;;;;;;;5059065;28;20099;-64
2021/01/02 08:47:01;;;;;;;5.35;2.80;;;;;;;;;;5026039;28;20021;-64
2021/01/02 08:49:41;;;;;;;5.85;2.35;;;;;;;;;;5028196;28;20087;-63
2021/01/02 08:52:24;;;;;;;5.57;1.95;;;;;;;;;;5025992;28;20045;-64
2021/01/02 08:54:52;;;;;;;5.68;1.42;;;;;;;;;;5014262;28;20053;-62
2021/01/02 08:57:24;;;;;;;5.95;1.42;;;;;;;;;;5030721;28;20041;-62
2021/01/02 08:59:50;;;;;;;6.35;1.95;;;;;;;;;;5028383;28;20033;-65
2021/01/02 09:02:16;;;;;;;5.32;1.33;;;;;;;;;;5034921;28;20231;-65
2021/01/02 09:04:43;;;;;;;5.45;1.70;;;;;;;;;;5031685;28;20508;-65
2021/01/02 09:07:09;;;;;;;4.18;1.30;;;;;;;;;;5028027;28;20024;-62
2021/01/02 09:09:35;;;;;;;6.63;1.42;;;;;;;;;;5028683;28;20038;-67
2021/01/02 09:12:05;;;;;;;5.28;0.82;;;;;;;;;;5032177;28;20041;-68
2021/01/02 09:14:31;;;;;;;2.10;1.10;;;;;;;;;;5027718;28;20033;-66
2021/01/02 09:17:04;;;;;;;4.18;1.20;;;;;;;;;;5027261;28;20112;-66
2021/01/02 09:19:32;;;;;;;3.83;0.88;;;;;;;;;;5029725;28;20525;-67
2021/01/02 09:21:59;;;;;;;2.53;0.57;;;;;;;;;;5024804;28;20029;-67
2021/01/02 09:24:25;;;;;;;4.75;0.90;;;;;;;;;;5026671;28;20487;-65
2021/01/02 09:26:51;;;;;;;2.47;1.02;;;;;;;;;;5030432;28;20056;-67
2021/01/02 09:29:18;;;;;;;6.75;1.88;;;;;;;;;;5026474;28;20527;-66
2021/01/02 09:31:44;;;;;;;3.55;0.90;;;;;;;;;;5026883;28;20037;-67
2021/01/02 09:34:11;;;;;;;5.30;1.85;;;;;;;;;;5028882;28;20025;-68
2021/01/02 09:36:37;;;;;;;4.35;1.00;;;;;;;;;;5028081;28;20375;-68
2021/01/02 09:39:04;;;;;;;9.23;1.17;;;;;;;;;;5029964;28;20029;-65
2021/01/02 09:41:30;;;;;;;4.80;0.85;;;;;;;;;;5027632;28;20530;-65
2021/01/02 09:43:57;;;;;;;4.93;0.82;;;;;;;;;;5027680;28;20116;-68
2021/01/02 09:46:25;;;;;;;3.75;0.85;;;;;;;;;;5027574;28;20045;-68
2021/01/02 09:48:53;;;;;;;3.15;0.95;;;;;;;;;;5027588;28;20026;-66
2021/01/02 09:51:19;;;;;;;3.63;1.00;;;;;;;;;;5030175;28;20045;-67
2021/01/02 09:53:45;;;;;;;3.95;0.90;;;;;;;;;;5028991;28;20108;-68
2021/01/02 09:56:12;;;;;;;6.07;0.90;;;;;;;;;;5027278;28;20029;-61
2021/01/02 09:58:38;;;;;;;16.13;7.25;;;;;;;;;;5022369;28;20033;-66
2021/01/02 10:01:05;;;;;;;25.83;23.05;;;;;;;;;;5010457;28;20056;-64
2021/01/02 10:03:32;;;;;;;13.98;9.70;;;;;;;;;;5021667;28;20116;-65
2021/01/02 10:05:58;;;;;;;11.77;7.10;;;;;;;;;;5014339;28;20025;-65
2021/01/02 10:08:24;;;;;;;11.10;4.45;;;;;;;;;;5008926;28;20034;-66
2021/01/02 10:10:51;;;;;;;8.00;2.67;;;;;;;;;;5010050;28;20044;-67
2021/01/02 10:13:17;;;;;;;10.77;4.85;;;;;;;;;;5009978;28;20057;-65
2021/01/02 10:15:43;;;;;;;5.38;1.67;;;;;;;;;;5007440;28;20052;-66
2021/01/02 10:18:09;;;;;;;10.43;2.63;;;;;;;;;;5010321;28;20104;-63
2021/01/02 10:20:36;;;;;;;12.38;2.95;;;;;;;;;;5009526;28;20030;-65
2021/01/02 10:23:03;;;;;;;12.07;2.78;;;;;;;;;;5009584;28;20026;-68
2021/01/02 10:25:29;;;;;;;5.40;1.30;;;;;;;;;;5009638;28;20026;-67
2021/01/02 10:27:55;;;;;;;4.78;0.90;;;;;;;;;;5008837;28;20030;-66
2021/01/02 10:30:21;;;;;;;4.75;0.82;;;;;;;;;;5012694;28;20030;-66
2021/01/02 10:32:47;;;;;;;5.50;0.88;;;;;;;;;;5014140;28;20053;-65
2021/01/02 10:35:14;;;;;;;6.97;1.38;;;;;;;;;;5014958;28;20083;-64
2021/01/02 10:37:41;;;;;;;5.60;1.45;;;;;;;;;;5020548;28;20534;-65
2021/01/02 10:40:08;;;;;;;6.10;1.55;;;;;;;;;;5020422;28;20099;-65
2021/01/02 10:42:34;;;;;;;6.68;1.20;;;;;;;;;;5018435;28;20495;-65
2021/01/02 10:45:01;;;;;;;10.07;1.10;;;;;;;;;;5018683;28;20065;-66
2021/01/02 10:47:28;;;;;;;10.50;2.45;;;;;;;;;;5026754;28;20033;-66
2021/01/02 10:49:55;;;;;;;2.15;0.80;;;;;;;;;;5023678;28;20125;-66
2021/01/02 10:52:23;;;;;;;8.82;1.75;;;;;;;;;;5020432;28;20022;-67
2021/01/02 10:54:49;;;;;;;4.65;1.27;;;;;;;;;;5023448;28;20442;-67
2021/01/02 10:57:16;;;;;;;15.45;10.32;;;;;;;;;;5029408;28;20025;-67
2021/01/02 10:59:43;;;;;;;17.98;13.18;;;;;;;;;;5025012;28;20021;-66
2021/01/02 11:02:10;;;;;;;26.83;17.55;;;;;;;;;;5024387;28;20041;-63
2021/01/02 11:04:36;;;;;;;24.00;14.45;;;;;;;;;;5026801;28;20033;-64
2021/01/02 11:07:03;;;;;;;24.80;11.63;;;;;;;;;;5029524;28;20033;-66
2021/01/02 11:09:29;;;;;;;41.78;21.20;;;;;;;;;;5031308;28;21160;-65
2021/01/02 11:11:55;;;;;;;39.28;19.52;;;;;;;;;;5029001;28;20073;-65
2021/01/02 11:14:21;;;;;;;36.25;12.18;;;;;;;;;;5029079;28;20025;-65
2021/01/02 11:16:48;;;;;;;6.70;2.05;;;;;;;;;;5029547;28;20037;-65
2021/01/02 11:19:15;;;;;;;19.52;7.22;;;;;;;;;;5031383;28;20076;-66
2021/01/02 11:21:42;;;;;;;12.70;4.93;;;;;;;;;;5029407;28;20083;-66
2021/01/02 11:24:09;;;;;;;13.15;5.25;;;;;;;;;;5032622;28;20041;-65
2021/01/02 11:26:35;;;;;;;5.85;1.88;;;;;;;;;;5031357;28;20134;-66
2021/01/02 11:29:01;;;;;;;7.97;1.40;;;;;;;;;;5030025;28;20025;-65
2021/01/02 11:31:31;;;;;;;3.85;1.10;;;;;;;;;;5030901;28;20060;-64
2021/01/02 11:33:58;;;;;;;8.55;1.42;;;;;;;;;;5030392;28;20390;-65
2021/01/02 11:36:25;;;;;;;4.05;1.00;;;;;;;;;;5032328;28;20022;-63
2021/01/02 11:38:51;;;;;;;5.38;0.90;;;;;;;;;;5031464;28;20087;-65
2021/01/02 11:41:17;;;;;;;3.83;0.95;;;;;;;;;;5029415;28;20490;-65
2021/01/02 11:43:44;;;;;;;3.72;1.10;;;;;;;;;;5028459;28;20018;-65
2021/01/02 11:46:11;;;;;;;6.38;1.17;;;;;;;;;;5030039;28;20479;-66
2021/01/02 11:48:40;;;;;;;5.95;1.40;;;;;;;;;;5014598;28;20442;-66
2021/01/02 11:51:11;;;;;;;8.68;1.23;;;;;;;;;;5029042;28;20041;-65
2021/01/02 11:53:37;;;;;;;9.00;2.05;;;;;;;;;;5024921;28;20079;-66
2021/01/02 11:56:04;;;;;;;10.18;2.00;;;;;;;;;;5029435;28;20033;-65
2021/01/02 11:58:30;;;;;;;10.93;3.33;;;;;;;;;;5031008;28;20045;-65
2021/01/02 12:00:56;;;;;;;12.02;2.15;;;;;;;;;;5029561;28;20049;-65
2021/01/02 12:03:23;;;;;;;7.95;1.70;;;;;;;;;;5032369;28;20064;-66
2021/01/02 12:05:49;;;;;;;13.57;3.00;;;;;;;;;;5030188;28;20061;-67
2021/01/02 12:08:15;;;;;;;8.77;2.50;;;;;;;;;;5029811;28;20112;-66
2021/01/02 12:10:41;;;;;;;17.35;2.58;;;;;;;;;;5029374;28;20036;-66
2021/01/02 12:13:07;;;;;;;9.43;2.10;;;;;;;;;;5029760;28;20075;-66
2021/01/02 12:15:33;;;;;;;6.05;1.67;;;;;;;;;;5030708;28;20029;-66
2021/01/02 12:17:59;;;;;;;7.25;1.90;;;;;;;;;;5031829;28;20033;-66
2021/01/02 12:20:25;;;;;;;5.40;1.40;;;;;;;;;;5029501;28;20037;-65
2021/01/02 12:22:51;;;;;;;4.53;1.30;;;;;;;;;;5028945;28;20018;-66
2021/01/02 12:25:17;;;;;;;7.78;3.25;;;;;;;;;;5029110;28;20083;-65
2021/01/02 12:27:44;;;;;;;5.70;2.13;;;;;;;;;;5029361;28;20113;-65
2021/01/02 12:30:10;;;;;;;19.77;6.00;;;;;;;;;;5031951;28;20037;-65
2021/01/02 12:32:36;;;;;;;4.82;2.55;;;;;;;;;;5030998;28;20036;-64
2021/01/02 12:35:02;;;;;;;3.33;1.15;;;;;;;;;;5029168;28;20053;-65
2021/01/02 12:37:28;;;;;;;2.67;0.68;;;;;;;;;;5028872;28;20028;-65
2021/01/02 12:39:54;;;;;;;3.85;0.80;;;;;;;;;;5029299;28;20025;-65
2021/01/02 12:42:20;;;;;;;1.83;0.75;;;;;;;;;;5031072;28;20037;-66
2021/01/02 12:44:49;;;;;;;7.50;1.45;;;;;;;;;;5031853;28;20099;-64
2021/01/02 12:47:16;;;;;;;3.58;1.40;;;;;;;;;;5030554;28;20037;-65
2021/01/02 12:49:43;;;;;;;9.98;1.27;;;;;;;;;;5030756;28;20024;-66
2021/01/02 12:52:10;;;;;;;3.97;2.00;;;;;;;;;;5028797;28;20095;-66
2021/01/02 12:54:36;;;;;;;15.82;1.38;;;;;;;;;;5029520;28;20037;-66
2021/01/02 12:57:02;;;;;;;4.47;0.70;;;;;;;;;;5031709;28;20060;-65
2021/01/02 12:59:32;;;;;;;4.05;0.80;;;;;;;;;;5028023;28;20025;-65
2021/01/02 13:02:00;;;;;;;5.75;0.80;;;;;;;;;;5026293;28;20103;-65
2021/01/02 13:04:27;;;;;;;5.93;1.10;;;;;;;;;;5027850;28;20025;-65
2021/01/02 13:06:54;;;;;;;2.83;0.90;;;;;;;;;;5028310;28;20080;-63
2021/01/02 13:09:20;;;;;;;2.97;1.15;;;;;;;;;;5029767;28;20394;-63
2021/01/02 13:11:49;;;;;;;3.33;0.80;;;;;;;;;;5030856;28;20792;-63
2021/01/02 13:14:15;;;;;;;2.10;0.88;;;;;;;;;;5027046;28;20021;-63
2021/01/02 13:16:46;;;;;;;4.55;1.08;;;;;;;;;;5028192;28;20021;-63
2021/01/02 13:19:12;;;;;;;3.58;0.90;;;;;;;;;;5029243;28;20031;-63
2021/01/02 13:21:43;;;;;;;5.47;1.98;;;;;;;;;;5028021;28;20473;-63
2021/01/02 13:24:10;;;;;;;6.18;1.42;;;;;;;;;;5026751;28;20068;-63
2021/01/02 13:26:36;;;;;;;7.07;1.33;;;;;;;;;;5029117;28;20057;-63
2021/01/02 13:29:02;;;;;;;3.08;0.98;;;;;;;;;;5027592;28;20112;-62
2021/01/02 13:31:28;;;;;;;4.65;0.90;;;;;;;;;;5027502;28;20034;-62
2021/01/02 13:33:54;;;;;;;4.35;0.73;;;;;;;;;;5028245;28;20471;-64
2021/01/02 13:36:20;;;;;;;3.72;0.80;;;;;;;;;;5029468;28;20025;-63
2021/01/02 13:38:46;;;;;;;7.05;0.90;;;;;;;;;;5028710;28;20024;-66
2021/01/02 13:41:12;;;;;;;3.28;1.25;;;;;;;;;;5027439;28;20102;-63
2021/01/02 13:43:38;;;;;;;3.80;0.70;;;;;;;;;;5027850;28;20029;-63
2021/01/02 13:46:04;;;;;;;4.60;1.10;;;;;;;;;;5027567;28;20513;-67
2021/01/02 13:48:31;;;;;;;5.28;0.98;;;;;;;;;;5028898;28;20034;-69
2021/01/02 13:50:57;;;;;;;3.42;0.60;;;;;;;;;;5029071;28;20568;-66
2021/01/02 13:53:23;;;;;;;1.67;0.60;;;;;;;;;;5027635;28;20030;-66
2021/01/02 13:55:49;;;;;;;3.25;0.60;;;;;;;;;;5027437;28;20033;-63
2021/01/02 13:58:15;;;;;;;5.28;0.70;;;;;;;;;;5027753;28;20025;-63
2021/01/02 14:00:41;;;;;;;3.30;0.60;;;;;;;;;;5027558;28;20499;-64
2021/01/02 14:03:07;;;;;;;2.15;1.00;;;;;;;;;;5029887;28;20068;-63
2021/01/02 14:05:33;;;;;;;4.72;1.02;;;;;;;;;;5024705;28;20033;-63
2021/01/02 14:07:59;;;;;;;3.10;0.70;;;;;;;;;;5029729;28;20029;-63
2021/01/02 14:10:25;;;;;;;3.95;0.63;;;;;;;;;;5025792;28;20076;-63
2021/01/02 14:12:52;;;;;;;5.35;0.93;;;;;;;;;;5026664;28;20115;-63
2021/01/02 14:15:18;;;;;;;2.38;0.70;;;;;;;;;;5032541;28;20021;-62
2021/01/02 14:17:44;;;;;;;3.47;0.55;;;;;;;;;;5032108;28;20048;-62
2021/01/02 14:20:10;;;;;;;3.78;0.98;;;;;;;;;;5028314;28;20048;-63
2021/01/02 14:22:38;;;;;;;4.72;0.93;;;;;;;;;;5029234;28;20435;-63
2021/01/02 14:25:05;;;;;;;2.08;0.60;;;;;;;;;;5031031;28;20021;-62
2021/01/02 14:27:31;;;;;;;4.97;0.93;;;;;;;;;;5030985;28;20073;-64
2021/01/02 14:29:57;;;;;;;3.42;0.77;;;;;;;;;;5033015;28;20030;-64
2021/01/02 14:32:23;;;;;;;3.88;0.57;;;;;;;;;;5030624;28;20037;-63
2021/01/02 14:34:49;;;;;;;3.40;1.00;;;;;;;;;;5032217;28;20063;-63
2021/01/02 14:37:15;;;;;;;3.58;0.60;;;;;;;;;;5031699;28;20025;-63
2021/01/02 14:39:42;;;;;;;5.07;1.00;;;;;;;;;;5032788;28;20084;-63
2021/01/02 14:42:09;;;;;;;4.88;0.70;;;;;;;;;;5033882;28;20052;-63
2021/01/02 14:44:35;;;;;;;4.40;1.45;;;;;;;;;;5029571;28;20037;-64
2021/01/02 14:47:02;;;;;;;2.92;1.08;;;;;;;;;;5032860;28;20033;-64
2021/01/02 14:49:28;;;;;;;2.45;1.00;;;;;;;;;;5034980;28;20022;-63
2021/01/02 14:51:55;;;;;;;3.75;1.00;;;;;;;;;;5033321;28;20108;-64
2021/01/02 14:54:23;;;;;;;3.80;0.95;;;;;;;;;;5031738;28;20505;-63
2021/01/02 14:56:53;;;;;;;3.72;1.00;;;;;;;;;;5033011;28;20033;-63
2021/01/02 14:59:19;;;;;;;3.67;1.00;;;;;;;;;;5031000;28;20051;-64
2021/01/02 15:01:45;;;;;;;2.47;0.82;;;;;;;;;;5031192;28;20041;-64
2021/01/02 15:04:11;;;;;;;2.88;0.93;;;;;;;;;;5031184;28;20032;-63
2021/01/02 15:06:38;;;;;;;1.67;0.70;;;;;;;;;;5031834;28;20506;-64
2021/01/02 15:09:05;;;;;;;2.35;0.63;;;;;;;;;;5029863;28;20416;-65
2021/01/02 15:11:31;;;;;;;4.75;1.50;;;;;;;;;;5029831;28;20029;-64
2021/01/02 15:13:58;;;;;;;2.13;0.82;;;;;;;;;;5032192;28;20028;-64
2021/01/02 15:16:31;;;;;;;5.93;1.40;;;;;;;;;;5030259;28;20033;-64
2021/01/02 15:18:58;;;;;;;1.05;0.70;;;;;;;;;;5030964;28;20104;-63
2021/01/02 15:21:24;;;;;;;6.20;2.60;;;;;;;;;;5032725;28;20029;-63
2021/01/02 15:23:51;;;;;;;8.77;3.03;;;;;;;;;;5031762;28;20037;-63
2021/01/02 15:26:20;;;;;;;96.07;48.22;;;;;;;;;;5029870;28;20049;-63
2021/01/02 15:28:46;;;;;;;25.92;10.18;;;;;;;;;;5027947;28;20491;-63
2021/01/02 15:31:12;;;;;;;16.02;6.68;;;;;;;;;;5029726;28;20463;-62
2021/01/02 15:33:38;;;;;;;88.32;34.25;;;;;;;;;;5018818;28;20164;-64
2021/01/02 15:36:06;;;;;;;189.20;90.90;;;;;;;;;;5033425;28;20032;-60
2021/01/02 15:38:33;;;;;;;10.13;5.22;;;;;;;;;;5029456;28;20064;-63
2021/01/02 15:41:00;;;;;;;30.08;15.65;;;;;;;;;;5029975;28;20044;-64
2021/01/02 15:43:28;;;;;;;45.28;19.60;;;;;;;;;;5030371;28;20476;-64
2021/01/02 15:45:55;;;;;;;16.08;8.20;;;;;;;;;;5030023;28;20602;-64
2021/01/02 15:48:22;;;;;;;17.70;8.65;;;;;;;;;;5032324;28;20123;-64
2021/01/02 15:50:48;;;;;;;15.88;7.55;;;;;;;;;;5031107;28;20033;-64
2021/01/02 15:53:14;;;;;;;24.90;12.07;;;;;;;;;;5029768;28;20022;-64
2021/01/02 15:55:40;;;;;;;14.02;3.15;;;;;;;;;;5029804;28;20022;-63
2021/01/02 15:58:06;;;;;;;5.50;1.70;;;;;;;;;;5030040;28;20029;-64
2021/01/02 16:00:32;;;;;;;62.75;25.92;;;;;;;;;;5029321;28;20053;-64
2021/01/02 16:02:58;;;;;;;31.77;15.23;;;;;;;;;;5013514;28;20445;-64
2021/01/02 16:05:24;;;;;;;8.82;3.35;;;;;;;;;;5021623;28;20040;-63
2021/01/02 16:07:50;;;;;;;21.92;15.45;;;;;;;;;;5028245;28;20025;-64
2021/01/02 16:10:17;;;;;;;12.07;5.80;;;;;;;;;;5019225;28;20057;-63
2021/01/02 16:12:43;;;;;;;4.88;1.50;;;;;;;;;;5024389;28;20025;-64
2021/01/02 16:15:09;;;;;;;5.40;1.98;;;;;;;;;;5027807;28;20105;-64
2021/01/02 16:17:35;;;;;;;6.78;2.40;;;;;;;;;;5021319;28;20064;-63
2021/01/02 16:20:01;;;;;;;10.60;2.58;;;;;;;;;;5024409;28;20091;-61
2021/01/02 16:22:27;;;;;;;6.75;2.30;;;;;;;;;;5025767;28;20049;-64
2021/01/02 16:24:54;;;;;;;5.22;1.50;;;;;;;;;;5024417;28;20459;-62
2021/01/02 16:27:20;;;;;;;6.72;1.92;;;;;;;;;;5025234;28;20046;-64
2021/01/02 16:29:49;;;;;;;5.57;1.77;;;;;;;;;;5026465;28;20032;-63
2021/01/02 16:32:15;;;;;;;23.20;11.13;;;;;;;;;;5026246;28;20080;-63
2021/01/02 16:34:43;;;;;;;3.47;2.10;;;;;;;;;;5024919;28;20475;-63
2021/01/02 16:37:14;;;;;;;7.55;4.40;;;;;;;;;;5025544;28;20039;-64
2021/01/02 16:39:41;;;;;;;10.60;3.10;;;;;;;;;;5022596;28;20022;-63
2021/01/02 16:42:08;;;;;;;11.73;5.93;;;;;;;;;;5020424;28;20036;-65
2021/01/02 16:44:37;;;;;;;5.60;2.58;;;;;;;;;;5017931;28;20380;-66
2021/01/02 16:47:07;;;;;;;18.45;4.55;;;;;;;;;;5021239;28;20032;-64
2021/01/02 16:49:34;;;;;;;7.05;1.60;;;;;;;;;;5025974;28;20037;-65
2021/01/02 16:52:01;;;;;;;4.55;2.83;;;;;;;;;;5026006;28;20555;-65
2021/01/02 16:54:27;;;;;;;5.93;2.40;;;;;;;;;;5022063;28;20502;-63
2021/01/02 16:56:54;;;;;;;11.38;3.92;;;;;;;;;;5022896;28;20521;-65
2021/01/02 16:59:20;;;;;;;24.80;9.32;;;;;;;;;;5026788;28;20068;-65
2021/01/02 17:01:46;;;;;;;16.52;6.57;;;;;;;;;;5031800;28;20163;-65
2021/01/02 17:04:12;;;;;;;14.10;7.20;;;;;;;;;;5025852;28;20458;-66
2021/01/02 17:06:39;;;;;;;32.35;21.75;;;;;;;;;;5023251;28;20033;-66
2021/01/02 17:09:06;;;;;;;21.27;10.98;;;;;;;;;;5026994;28;20058;-66
2021/01/02 17:11:37;;;;;;;28.25;19.15;;;;;;;;;;5027846;28;20033;-67
2021/01/02 17:14:04;;;;;;;10.52;4.25;;;;;;;;;;5028131;28;20021;-66
2021/01/02 17:16:34;;;;;;;6.68;3.70;;;;;;;;;;5026796;28;20033;-66
2021/01/02 17:19:01;;;;;;;7.75;3.38;;;;;;;;;;5022414;28;20037;-65
2021/01/02 17:21:28;;;;;;;9.35;5.20;;;;;;;;;;5024965;28;20034;-64
2021/01/02 17:23:54;;;;;;;12.18;6.07;;;;;;;;;;5027272;28;20029;-65
2021/01/02 17:26:31;;;;;;;9.13;6.03;;;;;;;;;;5024015;28;20030;-59
2021/01/02 17:28:58;;;;;;;58.30;21.70;;;;;;;;;;5022576;28;20074;-59
2021/01/02 17:31:32;;;;;;;93.28;41.83;;;;;;;;;;5026358;28;20044;-55
2021/01/02 17:33:58;;;;;;;48.25;21.50;;;;;;;;;;5027360;28;20028;-57
2021/01/02 17:36:24;;;;;;;18.45;7.07;;;;;;;;;;5027589;28;20514;-53
2021/01/02 17:38:55;;;;;;;13.57;4.50;;;;;;;;;;5026451;28;20040;-59
2021/01/02 17:41:26;;;;;;;3.50;2.03;;;;;;;;;;5027199;28;20191;-57
2021/01/02 17:43:52;;;;;;;53.85;31.52;;;;;;;;;;5026037;28;20061;-57
2021/01/02 17:46:22;;;;;;;14.65;6.20;;;;;;;;;;5027035;28;20418;-57
2021/01/02 17:48:49;;;;;;;9.90;3.35;;;;;;;;;;5023372;28;20033;-58
2021/01/02 17:51:16;;;;;;;11.23;4.70;;;;;;;;;;5027487;28;20041;-54
2021/01/02 17:53:42;;;;;;;8.32;2.20;;;;;;;;;;5028707;28;20503;-55
2021/01/02 17:56:09;;;;;;;8.50;3.03;;;;;;;;;;5025185;28;20029;-55
2021/01/02 17:58:35;;;;;;;10.40;4.93;;;;;;;;;;5025064;28;20036;-57
2021/01/02 18:01:01;;;;;;;22.08;10.40;;;;;;;;;;5024719;28;20484;-57
2021/01/02 18:03:27;;;;;;;10.50;5.57;;;;;;;;;;5026997;28;20025;-56
2021/01/02 18:05:53;;;;;;;14.32;6.63;;;;;;;;;;5027316;28;20029;-55
2021/01/02 18:08:19;;;;;;;4.40;2.30;;;;;;;;;;5028134;28;20029;-57
2021/01/02 18:10:45;;;;;;;8.73;2.20;;;;;;;;;;5025403;28;20466;-56
2021/01/02 18:13:12;;;;;;;3.85;1.30;;;;;;;;;;5028647;28;20399;-56
2021/01/02 18:15:38;;;;;;;4.78;1.90;;;;;;;;;;5027893;28;20041;-57
2021/01/02 18:18:04;;;;;;;6.25;2.15;;;;;;;;;;5030720;28;20109;-55
2021/01/02 18:20:30;;;;;;;5.00;1.25;;;;;;;;;;5026528;28;20037;-57
2021/01/02 18:22:56;;;;;;;3.90;1.27;;;;;;;;;;5028951;28;20079;-58
2021/01/02 18:25:22;;;;;;;8.45;1.67;;;;;;;;;;5027500;28;20088;-57
2021/01/02 18:27:48;;;;;;;7.50;1.40;;;;;;;;;;5026611;28;20030;-58
2021/01/02 18:30:15;;;;;;;5.25;1.40;;;;;;;;;;5030196;28;20033;-58
2021/01/02 18:32:41;;;;;;;3.13;1.00;;;;;;;;;;5028046;28;20087;-58
2021/01/02 18:35:08;;;;;;;5.18;1.92;;;;;;;;;;5027259;28;20029;-58
2021/01/02 18:37:35;;;;;;;4.57;1.20;;;;;;;;;;5027209;28;20010;-57
2021/01/02 18:40:05;;;;;;;8.13;1.85;;;;;;;;;;5027092;28;20109;-58
2021/01/02 18:42:31;;;;;;;7.30;2.10;;;;;;;;;;5028907;28;20033;-57
2021/01/02 18:44:57;;;;;;;2.92;1.80;;;;;;;;;;5029468;28;20050;-58
2021/01/02 18:47:23;;;;;;;7.07;3.10;;;;;;;;;;5027312;28;20479;-58
2021/01/02 18:49:49;;;;;;;10.88;3.40;;;;;;;;;;5026943;28;20049;-58
2021/01/02 18:52:16;;;;;;;7.65;1.40;;;;;;;;;;5026993;28;20031;-57
2021/01/02 18:54:45;;;;;;;6.05;1.40;;;;;;;;;;5028875;28;20022;-58
2021/01/02 18:57:12;;;;;;;4.60;2.08;;;;;;;;;;5030402;28;20079;-58
2021/01/02 18:59:39;;;;;;;5.60;1.58;;;;;;;;;;5032247;28;20538;-58
2021/01/02 19:02:06;;;;;;;5.70;2.28;;;;;;;;;;5029341;28;20091;-58
2021/01/02 19:04:32;;;;;;;48.15;34.97;;;;;;;;;;5030355;28;20088;-58
2021/01/02 19:07:02;;;;;;;5.32;1.85;;;;;;;;;;5024522;28;20096;-60
2021/01/02 19:09:28;;;;;;;9.70;5.13;;;;;;;;;;5016450;28;20029;-58
2021/01/02 19:11:55;;;;;;;6.28;2.55;;;;;;;;;;5014674;28;20140;-58
2021/01/02 19:14:21;;;;;;;5.82;3.00;;;;;;;;;;5016190;28;20022;-56
2021/01/02 19:16:53;;;;;;;4.38;1.50;;;;;;;;;;5016875;28;20030;-60
2021/01/02 19:19:19;;;;;;;3.35;0.85;;;;;;;;;;5014129;28;20026;-59
2021/01/02 19:21:46;;;;;;;3.95;1.20;;;;;;;;;;5016665;28;20527;-59
2021/01/02 19:24:12;;;;;;;5.35;1.60;;;;;;;;;;5015589;28;20454;-58
2021/01/02 19:26:39;;;;;;;7.70;2.15;;;;;;;;;;5014244;28;20172;-59
2021/01/02 19:29:06;;;;;;;5.20;1.23;;;;;;;;;;5014220;28;20104;-59
2021/01/02 19:31:33;;;;;;;4.60;2.40;;;;;;;;;;5014358;28;20029;-59
2021/01/02 19:34:00;;;;;;;10.65;6.15;;;;;;;;;;5013258;28;20017;-59
2021/01/02 19:36:32;;;;;;;6.82;1.52;;;;;;;;;;5011864;28;20569;-59
2021/01/02 19:39:00;;;;;;;9.10;3.50;;;;;;;;;;5014405;28;20041;-59
2021/01/02 19:41:39;;;;;;;11.48;6.93;;;;;;;;;;5015113;28;20038;-59
2021/01/02 19:44:06;;;;;;;13.52;8.80;;;;;;;;;;5015475;28;20403;-59
2021/01/02 19:46:32;;;;;;;16.40;6.95;;;;;;;;;;5013844;28;20545;-58
2021/01/02 19:48:58;;;;;;;11.43;4.05;;;;;;;;;;5013177;28;20389;-59
2021/01/02 19:51:24;;;;;;;5.88;3.00;;;;;;;;;;5009364;28;20021;-59
2021/01/02 19:53:51;;;;;;;4.78;1.10;;;;;;;;;;5011171;28;20440;-58
2021/01/02 19:56:18;;;;;;;5.65;1.77;;;;;;;;;;5023009;28;20064;-59
2021/01/02 19:58:44;;;;;;;7.03;1.90;;;;;;;;;;5025876;28;20026;-59
2021/01/02 20:01:10;;;;;;;8.10;1.88;;;;;;;;;;5018755;28;20588;-59
2021/01/02 20:03:37;;;;;;;6.47;2.35;;;;;;;;;;5012655;28;20057;-59
2021/01/02 20:06:03;;;;;;;3.13;1.25;;;;;;;;;;5011409;28;20109;-57
2021/01/02 20:08:29;;;;;;;4.90;1.10;;;;;;;;;;5018185;28;20036;-59
2021/01/02 20:10:55;;;;;;;8.45;1.90;;;;;;;;;;5019775;28;20060;-59
2021/01/02 20:13:21;;;;;;;6.28;3.60;;;;;;;;;;5024082;28;20029;-58
2021/01/02 20:15:47;;;;;;;5.65;3.28;;;;;;;;;;5021768;28;20040;-58
2021/01/02 20:18:13;;;;;;;8.30;4.15;;;;;;;;;;5014469;28;20021;-59
2021/01/02 20:20:42;;;;;;;6.85;3.17;;;;;;;;;;5012829;28;20334;-59
2021/01/02 20:23:08;;;;;;;6.20;2.50;;;;;;;;;;5016254;28;20079;-59
2021/01/02 20:25:35;;;;;;;7.60;3.00;;;;;;;;;;5019192;28;20034;-58
2021/01/02 20:28:01;;;;;;;7.28;3.90;;;;;;;;;;5021069;28;20522;-59
2021/01/02 20:30:27;;;;;;;8.48;4.57;;;;;;;;;;5024959;28;20017;-59
2021/01/02 20:32:53;;;;;;;9.77;5.07;;;;;;;;;;5021945;28;20021;-59
2021/01/02 20:35:19;;;;;;;7.80;5.13;;;;;;;;;;5016479;28;20037;-59
2021/01/02 20:37:46;;;;;;;12.27;5.53;;;;;;;;;;5017686;28;20033;-58